sensor_id;sensor_type;location;lat;lon;timestamp;pressure;altitude;pressure_sealevel;temperature;humidity
30598;BME280;17365;48.878;8.334;2023-02-08T00:00:03;102145.41;;;-0.88;65.19
30598;BME280;17365;48.878;8.334;2023-02-08T00:02:29;102144.66;;;-0.97;66.08
30598;BME280;17365;48.878;8.334;2023-02-08T00:04:54;102135.16;;;-1.20;66.90
30598;BME280;17365;48.878;8.334;2023-02-08T00:07:19;102140.28;;;-1.30;67.41
30598;BME280;17365;48.878;8.334;2023-02-08T00:09:44;102139.13;;;-1.23;66.92
30598;BME280;17365;48.878;8.334;2023-02-08T00:12:10;102134.03;;;-1.13;67.21
30598;BME280;17365;48.878;8.334;2023-02-08T00:14:35;102132.50;;;-1.11;66.82
30598;BME280;17365;48.878;8.334;2023-02-08T00:17:00;102137.94;;;-1.17;66.31
30598;BME280;17365;48.878;8.334;2023-02-08T00:19:25;102130.34;;;-1.37;67.89
30598;BME280;17365;48.878;8.334;2023-02-08T00:21:51;102138.63;;;-1.39;67.49
30598;BME280;17365;48.878;8.334;2023-02-08T00:24:16;102134.19;;;-1.42;66.77
30598;BME280;17365;48.878;8.334;2023-02-08T00:26:41;102137.09;;;-1.48;67.06
30598;BME280;17365;48.878;8.334;2023-02-08T00:29:06;102138.97;;;-1.25;66.79
30598;BME280;17365;48.878;8.334;2023-02-08T00:31:32;102135.53;;;-1.25;66.80
30598;BME280;17365;48.878;8.334;2023-02-08T00:33:57;102138.19;;;-1.13;66.14
30598;BME280;17365;48.878;8.334;2023-02-08T00:36:22;102134.06;;;-1.33;67.26
30598;BME280;17365;48.878;8.334;2023-02-08T00:38:48;102140.16;;;-1.52;67.64
30598;BME280;17365;48.878;8.334;2023-02-08T00:41:13;102133.03;;;-1.35;67.52
30598;BME280;17365;48.878;8.334;2023-02-08T00:43:38;102129.19;;;-1.30;66.81
30598;BME280;17365;48.878;8.334;2023-02-08T00:46:04;102137.50;;;-1.53;67.55
30598;BME280;17365;48.878;8.334;2023-02-08T00:48:29;102134.94;;;-1.43;67.58
30598;BME280;17365;48.878;8.334;2023-02-08T00:51:09;102135.19;;;-1.40;68.00
30598;BME280;17365;48.878;8.334;2023-02-08T00:53:39;102135.94;;;-1.31;67.12
30598;BME280;17365;48.878;8.334;2023-02-08T00:56:06;102131.38;;;-1.35;67.01
30598;BME280;17365;48.878;8.334;2023-02-08T00:58:32;102133.53;;;-1.60;68.88
30598;BME280;17365;48.878;8.334;2023-02-08T01:00:59;102132.16;;;-1.46;67.89
30598;BME280;17365;48.878;8.334;2023-02-08T01:03:24;102127.69;;;-1.38;67.75
30598;BME280;17365;48.878;8.334;2023-02-08T01:05:50;102128.72;;;-1.47;68.21
30598;BME280;17365;48.878;8.334;2023-02-08T01:08:15;102130.09;;;-1.50;68.36
30598;BME280;17365;48.878;8.334;2023-02-08T01:10:40;102129.59;;;-1.36;67.28
30598;BME280;17365;48.878;8.334;2023-02-08T01:13:06;102131.28;;;-1.47;68.27
30598;BME280;17365;48.878;8.334;2023-02-08T01:15:33;102129.97;;;-1.41;67.45
30598;BME280;17365;48.878;8.334;2023-02-08T01:17:58;102118.03;;;-1.42;68.34
30598;BME280;17365;48.878;8.334;2023-02-08T01:20:24;102116.78;;;-1.58;68.20
30598;BME280;17365;48.878;8.334;2023-02-08T01:22:50;102117.50;;;-1.59;68.46
30598;BME280;17365;48.878;8.334;2023-02-08T01:25:15;102118.78;;;-1.54;67.99
30598;BME280;17365;48.878;8.334;2023-02-08T01:27:41;102124.00;;;-1.52;68.39
30598;BME280;17365;48.878;8.334;2023-02-08T01:30:07;102122.72;;;-1.98;70.02
30598;BME280;17365;48.878;8.334;2023-02-08T01:32:32;102131.41;;;-1.76;69.81
30598;BME280;17365;48.878;8.334;2023-02-08T01:34:57;102127.81;;;-1.98;70.60
30598;BME280;17365;48.878;8.334;2023-02-08T01:37:23;102124.63;;;-2.06;70.67
30598;BME280;17365;48.878;8.334;2023-02-08T01:39:48;102121.94;;;-2.17;70.77
30598;BME280;17365;48.878;8.334;2023-02-08T01:42:15;102124.22;;;-2.20;71.99
30598;BME280;17365;48.878;8.334;2023-02-08T01:47:41;102116.09;;;-2.06;71.19
30598;BME280;17365;48.878;8.334;2023-02-08T01:50:07;102110.78;;;-1.99;70.35
30598;BME280;17365;48.878;8.334;2023-02-08T01:52:33;102108.34;;;-2.18;70.96
30598;BME280;17365;48.878;8.334;2023-02-08T01:55:13;102113.06;;;-2.02;71.29
30598;BME280;17365;48.878;8.334;2023-02-08T01:57:40;102107.69;;;-2.36;72.41
30598;BME280;17365;48.878;8.334;2023-02-08T02:00:11;102113.09;;;-1.92;71.15
30598;BME280;17365;48.878;8.334;2023-02-08T02:02:38;102108.97;;;-2.20;71.89
30598;BME280;17365;48.878;8.334;2023-02-08T02:05:05;102103.88;;;-2.20;71.57
30598;BME280;17365;48.878;8.334;2023-02-08T02:07:31;102110.09;;;-2.17;71.70
30598;BME280;17365;48.878;8.334;2023-02-08T02:10:02;102111.25;;;-2.23;72.04
30598;BME280;17365;48.878;8.334;2023-02-08T02:12:31;102104.78;;;-2.20;71.73
30598;BME280;17365;48.878;8.334;2023-02-08T02:14:58;102104.41;;;-2.14;71.26
30598;BME280;17365;48.878;8.334;2023-02-08T02:17:24;102100.56;;;-2.29;71.29
30598;BME280;17365;48.878;8.334;2023-02-08T02:20:08;102103.09;;;-2.29;71.04
30598;BME280;17365;48.878;8.334;2023-02-08T02:25:39;102095.88;;;-2.25;71.64
30598;BME280;17365;48.878;8.334;2023-02-08T02:28:41;102092.72;;;-2.12;70.69
30598;BME280;17365;48.878;8.334;2023-02-08T02:39:19;102093.50;;;-2.03;69.60
30598;BME280;17365;48.878;8.334;2023-02-08T02:50:17;102098.56;;;-2.23;69.27
30598;BME280;17365;48.878;8.334;2023-02-08T02:55:24;102100.97;;;-2.05;68.57
30598;BME280;17365;48.878;8.334;2023-02-08T02:57:53;102093.84;;;-2.09;69.02
30598;BME280;17365;48.878;8.334;2023-02-08T03:00:24;102095.78;;;-1.96;68.75
30598;BME280;17365;48.878;8.334;2023-02-08T03:02:50;102100.06;;;-2.25;69.56
30598;BME280;17365;48.878;8.334;2023-02-08T03:05:16;102091.53;;;-2.16;68.65
30598;BME280;17365;48.878;8.334;2023-02-08T03:13:32;102082.25;;;-2.15;68.78
30598;BME280;17365;48.878;8.334;2023-02-08T03:16:18;102089.41;;;-2.11;68.41
30598;BME280;17365;48.878;8.334;2023-02-08T03:21:36;102088.88;;;-2.27;69.15
30598;BME280;17365;48.878;8.334;2023-02-08T03:24:13;102092.31;;;-2.17;69.38
30598;BME280;17365;48.878;8.334;2023-02-08T03:26:57;102095.72;;;-2.37;69.33
30598;BME280;17365;48.878;8.334;2023-02-08T03:29:51;102090.69;;;-2.26;69.54
30598;BME280;17365;48.878;8.334;2023-02-08T03:32:23;102089.03;;;-2.26;69.72
30598;BME280;17365;48.878;8.334;2023-02-08T03:35:03;102090.22;;;-2.51;70.31
30598;BME280;17365;48.878;8.334;2023-02-08T03:37:36;102086.72;;;-2.33;69.72
30598;BME280;17365;48.878;8.334;2023-02-08T03:40:17;102090.13;;;-2.43;70.14
30598;BME280;17365;48.878;8.334;2023-02-08T03:42:45;102092.78;;;-2.41;69.52
30598;BME280;17365;48.878;8.334;2023-02-08T03:45:21;102090.97;;;-2.52;69.71
30598;BME280;17365;48.878;8.334;2023-02-08T03:47:49;102097.66;;;-2.63;69.82
30598;BME280;17365;48.878;8.334;2023-02-08T03:50:19;102094.16;;;-2.55;70.01
30598;BME280;17365;48.878;8.334;2023-02-08T03:52:46;102090.06;;;-2.63;70.45
30598;BME280;17365;48.878;8.334;2023-02-08T03:55:25;102100.66;;;-2.38;69.98
30598;BME280;17365;48.878;8.334;2023-02-08T03:58:08;102100.66;;;-2.38;69.63
30598;BME280;17365;48.878;8.334;2023-02-08T04:00:37;102095.97;;;-2.44;70.14
30598;BME280;17365;48.878;8.334;2023-02-08T04:03:12;102094.22;;;-2.35;69.69
30598;BME280;17365;48.878;8.334;2023-02-08T04:05:40;102092.63;;;-2.53;70.82
30598;BME280;17365;48.878;8.334;2023-02-08T04:08:05;102093.16;;;-2.47;70.33
30598;BME280;17365;48.878;8.334;2023-02-08T04:10:30;102085.75;;;-2.54;71.08
30598;BME280;17365;48.878;8.334;2023-02-08T04:12:56;102097.38;;;-2.37;70.23
30598;BME280;17365;48.878;8.334;2023-02-08T04:15:21;102086.63;;;-2.64;70.44
30598;BME280;17365;48.878;8.334;2023-02-08T04:17:46;102090.44;;;-2.69;71.55
30598;BME280;17365;48.878;8.334;2023-02-08T04:20:12;102093.28;;;-2.45;70.82
30598;BME280;17365;48.878;8.334;2023-02-08T04:22:37;102084.13;;;-2.43;70.12
30598;BME280;17365;48.878;8.334;2023-02-08T04:25:03;102092.38;;;-2.56;71.19
30598;BME280;17365;48.878;8.334;2023-02-08T04:27:28;102090.00;;;-2.44;70.89
30598;BME280;17365;48.878;8.334;2023-02-08T04:29:54;102092.41;;;-2.46;70.87
30598;BME280;17365;48.878;8.334;2023-02-08T04:32:19;102088.19;;;-2.84;72.12
30598;BME280;17365;48.878;8.334;2023-02-08T04:34:44;102087.72;;;-2.80;72.00
30598;BME280;17365;48.878;8.334;2023-02-08T04:37:09;102085.72;;;-2.64;71.52
30598;BME280;17365;48.878;8.334;2023-02-08T04:39:36;102088.38;;;-2.73;72.20
30598;BME280;17365;48.878;8.334;2023-02-08T04:42:01;102091.59;;;-2.94;72.25
30598;BME280;17365;48.878;8.334;2023-02-08T04:44:26;102085.94;;;-2.81;72.55
30598;BME280;17365;48.878;8.334;2023-02-08T04:46:52;102078.19;;;-2.73;71.77
30598;BME280;17365;48.878;8.334;2023-02-08T04:49:17;102080.72;;;-3.12;73.63
30598;BME280;17365;48.878;8.334;2023-02-08T04:51:42;102075.44;;;-3.05;73.52
30598;BME280;17365;48.878;8.334;2023-02-08T04:54:07;102077.69;;;-3.08;73.93
30598;BME280;17365;48.878;8.334;2023-02-08T04:56:33;102075.44;;;-3.05;73.47
30598;BME280;17365;48.878;8.334;2023-02-08T04:58:59;102077.97;;;-3.05;74.41
30598;BME280;17365;48.878;8.334;2023-02-08T05:01:25;102076.03;;;-3.07;73.89
30598;BME280;17365;48.878;8.334;2023-02-08T05:03:50;102075.81;;;-3.00;73.60
30598;BME280;17365;48.878;8.334;2023-02-08T05:06:15;102063.09;;;-3.29;74.87
30598;BME280;17365;48.878;8.334;2023-02-08T05:08:40;102062.06;;;-3.12;74.64
30598;BME280;17365;48.878;8.334;2023-02-08T05:11:06;102054.38;;;-3.04;74.50
30598;BME280;17365;48.878;8.334;2023-02-08T05:13:31;102059.47;;;-3.23;75.64
30598;BME280;17365;48.878;8.334;2023-02-08T05:15:57;102056.03;;;-3.04;75.23
30598;BME280;17365;48.878;8.334;2023-02-08T05:18:22;102057.50;;;-3.06;75.04
30598;BME280;17365;48.878;8.334;2023-02-08T05:20:57;102054.78;;;-3.18;75.26
30598;BME280;17365;48.878;8.334;2023-02-08T05:23:24;102054.13;;;-2.97;74.65
30598;BME280;17365;48.878;8.334;2023-02-08T05:25:50;102049.63;;;-2.80;74.17
30598;BME280;17365;48.878;8.334;2023-02-08T05:28:16;102045.78;;;-2.85;74.51
30598;BME280;17365;48.878;8.334;2023-02-08T05:30:41;102049.00;;;-3.07;74.95
30598;BME280;17365;48.878;8.334;2023-02-08T05:33:07;102050.06;;;-2.95;74.72
30598;BME280;17365;48.878;8.334;2023-02-08T05:35:32;102049.34;;;-2.94;75.04
30598;BME280;17365;48.878;8.334;2023-02-08T05:37:57;102049.44;;;-3.21;75.84
30598;BME280;17365;48.878;8.334;2023-02-08T05:40:23;102038.97;;;-3.15;75.44
30598;BME280;17365;48.878;8.334;2023-02-08T05:42:48;102043.63;;;-3.20;76.03
30598;BME280;17365;48.878;8.334;2023-02-08T05:45:14;102040.09;;;-3.12;76.25
30598;BME280;17365;48.878;8.334;2023-02-08T05:47:39;102047.63;;;-3.32;76.85
30598;BME280;17365;48.878;8.334;2023-02-08T05:50:04;102054.91;;;-3.27;76.09
30598;BME280;17365;48.878;8.334;2023-02-08T05:52:30;102050.34;;;-3.20;76.49
30598;BME280;17365;48.878;8.334;2023-02-08T05:54:55;102052.81;;;-3.31;77.17
30598;BME280;17365;48.878;8.334;2023-02-08T05:57:21;102054.41;;;-3.41;77.79
30598;BME280;17365;48.878;8.334;2023-02-08T05:59:46;102053.63;;;-3.22;76.76
30598;BME280;17365;48.878;8.334;2023-02-08T06:02:11;102052.22;;;-3.28;76.71
30598;BME280;17365;48.878;8.334;2023-02-08T06:04:36;102062.91;;;-3.22;76.89
30598;BME280;17365;48.878;8.334;2023-02-08T06:07:02;102052.34;;;-3.27;76.98
30598;BME280;17365;48.878;8.334;2023-02-08T06:09:27;102062.06;;;-3.12;75.94
30598;BME280;17365;48.878;8.334;2023-02-08T06:11:52;102064.41;;;-3.24;77.06
30598;BME280;17365;48.878;8.334;2023-02-08T06:14:18;102059.34;;;-3.43;77.85
30598;BME280;17365;48.878;8.334;2023-02-08T06:16:43;102061.44;;;-3.39;77.75
30598;BME280;17365;48.878;8.334;2023-02-08T06:19:08;102060.19;;;-3.34;77.87
30598;BME280;17365;48.878;8.334;2023-02-08T06:21:33;102066.53;;;-3.29;77.46
30598;BME280;17365;48.878;8.334;2023-02-08T06:23:59;102077.03;;;-3.34;78.03
30598;BME280;17365;48.878;8.334;2023-02-08T06:26:24;102068.41;;;-3.36;78.11
30598;BME280;17365;48.878;8.334;2023-02-08T06:28:49;102074.03;;;-3.49;78.67
30598;BME280;17365;48.878;8.334;2023-02-08T06:31:14;102078.13;;;-3.41;78.41
30598;BME280;17365;48.878;8.334;2023-02-08T06:33:40;102072.66;;;-3.45;78.94
30598;BME280;17365;48.878;8.334;2023-02-08T06:36:05;102080.47;;;-3.53;79.64
30598;BME280;17365;48.878;8.334;2023-02-08T06:38:31;102071.16;;;-3.43;79.15
30598;BME280;17365;48.878;8.334;2023-02-08T06:40:56;102064.84;;;-3.38;78.88
30598;BME280;17365;48.878;8.334;2023-02-08T06:43:21;102065.81;;;-3.28;78.74
30598;BME280;17365;48.878;8.334;2023-02-08T06:45:46;102070.31;;;-3.34;79.33
30598;BME280;17365;48.878;8.334;2023-02-08T06:48:12;102065.88;;;-3.36;79.03
30598;BME280;17365;48.878;8.334;2023-02-08T06:50:38;102067.59;;;-3.45;79.53
30598;BME280;17365;48.878;8.334;2023-02-08T06:53:03;102068.97;;;-3.49;80.18
30598;BME280;17365;48.878;8.334;2023-02-08T06:55:29;102070.75;;;-3.48;80.31
30598;BME280;17365;48.878;8.334;2023-02-08T06:57:55;102076.59;;;-3.49;80.52
30598;BME280;17365;48.878;8.334;2023-02-08T07:00:20;102080.66;;;-3.41;79.88
30598;BME280;17365;48.878;8.334;2023-02-08T07:02:46;102078.69;;;-3.54;80.33
30598;BME280;17365;48.878;8.334;2023-02-08T07:05:12;102082.81;;;-3.45;80.55
30598;BME280;17365;48.878;8.334;2023-02-08T07:07:37;102079.09;;;-3.68;81.02
30598;BME280;17365;48.878;8.334;2023-02-08T07:10:02;102077.06;;;-3.72;81.40
30598;BME280;17365;48.878;8.334;2023-02-08T07:12:28;102083.59;;;-3.74;82.21
30598;BME280;17365;48.878;8.334;2023-02-08T07:14:53;102082.72;;;-3.74;82.37
30598;BME280;17365;48.878;8.334;2023-02-08T07:17:18;102095.84;;;-3.70;82.40
30598;BME280;17365;48.878;8.334;2023-02-08T07:19:43;102085.00;;;-3.59;81.34
30598;BME280;17365;48.878;8.334;2023-02-08T07:22:09;102091.72;;;-3.40;80.59
30598;BME280;17365;48.878;8.334;2023-02-08T07:24:35;102092.00;;;-3.56;81.39
30598;BME280;17365;48.878;8.334;2023-02-08T07:27:01;102085.78;;;-3.60;81.17
30598;BME280;17365;48.878;8.334;2023-02-08T07:29:29;102094.03;;;-3.52;81.16
30598;BME280;17365;48.878;8.334;2023-02-08T07:31:54;102078.72;;;-3.72;82.46
30598;BME280;17365;48.878;8.334;2023-02-08T07:34:20;102085.44;;;-3.73;82.27
30598;BME280;17365;48.878;8.334;2023-02-08T07:36:49;102092.19;;;-3.63;82.07
30598;BME280;17365;48.878;8.334;2023-02-08T07:39:14;102087.63;;;-3.48;81.50
30598;BME280;17365;48.878;8.334;2023-02-08T07:41:39;102087.94;;;-3.54;81.76
30598;BME280;17365;48.878;8.334;2023-02-08T07:44:05;102087.06;;;-3.73;82.01
30598;BME280;17365;48.878;8.334;2023-02-08T07:46:30;102079.38;;;-3.46;81.15
30598;BME280;17365;48.878;8.334;2023-02-08T07:48:55;102080.16;;;-3.18;80.51
30598;BME280;17365;48.878;8.334;2023-02-08T07:51:21;102079.22;;;-3.29;80.03
30598;BME280;17365;48.878;8.334;2023-02-08T07:53:47;102077.41;;;-3.11;79.32
30598;BME280;17365;48.878;8.334;2023-02-08T07:56:12;102068.50;;;-2.87;79.31
30598;BME280;17365;48.878;8.334;2023-02-08T07:58:37;102066.88;;;-3.15;79.18
30598;BME280;17365;48.878;8.334;2023-02-08T08:01:03;102068.78;;;-3.13;79.85
30598;BME280;17365;48.878;8.334;2023-02-08T08:03:28;102064.94;;;-2.89;78.20
30598;BME280;17365;48.878;8.334;2023-02-08T08:05:53;102068.00;;;-2.93;78.42
30598;BME280;17365;48.878;8.334;2023-02-08T08:08:19;102070.78;;;-2.90;78.75
30598;BME280;17365;48.878;8.334;2023-02-08T08:10:44;102064.53;;;-3.04;78.46
30598;BME280;17365;48.878;8.334;2023-02-08T08:13:10;102067.06;;;-2.65;77.30
30598;BME280;17365;48.878;8.334;2023-02-08T08:15:36;102068.06;;;-2.63;77.17
30598;BME280;17365;48.878;8.334;2023-02-08T08:18:01;102066.38;;;-2.33;76.06
30598;BME280;17365;48.878;8.334;2023-02-08T08:20:26;102069.50;;;-2.56;76.32
30598;BME280;17365;48.878;8.334;2023-02-08T08:22:51;102066.13;;;-2.36;75.16
30598;BME280;17365;48.878;8.334;2023-02-08T08:25:17;102055.22;;;-2.15;74.92
30598;BME280;17365;48.878;8.334;2023-02-08T08:27:42;102046.44;;;-1.88;73.75
30598;BME280;17365;48.878;8.334;2023-02-08T08:30:10;102051.00;;;-1.84;73.00
30598;BME280;17365;48.878;8.334;2023-02-08T08:32:37;102054.84;;;-1.89;72.68
30598;BME280;17365;48.878;8.334;2023-02-08T08:35:02;102055.47;;;-1.81;72.02
30598;BME280;17365;48.878;8.334;2023-02-08T08:37:28;102060.03;;;-2.08;72.96
30598;BME280;17365;48.878;8.334;2023-02-08T08:39:53;102059.53;;;-1.73;72.08
30598;BME280;17365;48.878;8.334;2023-02-08T08:42:18;102056.84;;;-1.54;71.66
30598;BME280;17365;48.878;8.334;2023-02-08T08:44:45;102057.06;;;-1.51;71.11
30598;BME280;17365;48.878;8.334;2023-02-08T08:47:10;102046.63;;;-1.34;70.36
30598;BME280;17365;48.878;8.334;2023-02-08T08:49:35;102040.69;;;-1.55;70.19
30598;BME280;17365;48.878;8.334;2023-02-08T08:52:00;102037.97;;;-1.36;70.02
30598;BME280;17365;48.878;8.334;2023-02-08T08:54:26;102033.06;;;-1.12;69.20
30598;BME280;17365;48.878;8.334;2023-02-08T08:56:51;102039.34;;;-1.29;69.16
30598;BME280;17365;48.878;8.334;2023-02-08T08:59:17;102034.06;;;-1.10;69.03
30598;BME280;17365;48.878;8.334;2023-02-08T09:01:42;102038.84;;;-1.03;67.46
30598;BME280;17365;48.878;8.334;2023-02-08T09:04:08;102032.31;;;-0.90;66.74
30598;BME280;17365;48.878;8.334;2023-02-08T09:06:34;102030.06;;;-0.53;66.34
30598;BME280;17365;48.878;8.334;2023-02-08T09:09:00;102029.75;;;-0.46;66.32
30598;BME280;17365;48.878;8.334;2023-02-08T09:11:25;102025.84;;;-0.31;65.27
30598;BME280;17365;48.878;8.334;2023-02-08T09:13:50;102021.72;;;-0.28;64.92
30598;BME280;17365;48.878;8.334;2023-02-08T09:16:18;102029.34;;;-0.07;64.79
30598;BME280;17365;48.878;8.334;2023-02-08T09:18:44;102030.75;;;-0.22;62.62
30598;BME280;17365;48.878;8.334;2023-02-08T09:21:18;102025.72;;;0.13;62.99
30598;BME280;17365;48.878;8.334;2023-02-08T09:23:44;102025.16;;;0.17;62.72
30598;BME280;17365;48.878;8.334;2023-02-08T09:26:13;102026.44;;;0.46;61.50
30598;BME280;17365;48.878;8.334;2023-02-08T09:28:38;102028.63;;;0.41;61.29
30598;BME280;17365;48.878;8.334;2023-02-08T09:31:26;102026.97;;;0.65;58.80
30598;BME280;17365;48.878;8.334;2023-02-08T09:33:53;102027.06;;;0.90;58.41
30598;BME280;17365;48.878;8.334;2023-02-08T09:36:20;102030.84;;;0.95;55.30
30598;BME280;17365;48.878;8.334;2023-02-08T09:38:46;102024.16;;;1.09;53.79
30598;BME280;17365;48.878;8.334;2023-02-08T09:41:38;102018.78;;;1.29;54.72
30598;BME280;17365;48.878;8.334;2023-02-08T09:44:31;102012.53;;;1.37;52.62
30598;BME280;17365;48.878;8.334;2023-02-08T09:47:18;102012.84;;;1.42;51.00
30598;BME280;17365;48.878;8.334;2023-02-08T09:49:57;102005.00;;;1.52;49.71
30598;BME280;17365;48.878;8.334;2023-02-08T09:52:27;102000.44;;;1.60;49.42
30598;BME280;17365;48.878;8.334;2023-02-08T09:54:58;102003.22;;;1.76;49.08
30598;BME280;17365;48.878;8.334;2023-02-08T09:57:29;102002.97;;;1.85;48.63
30598;BME280;17365;48.878;8.334;2023-02-08T09:59:59;102015.09;;;2.00;48.83
30598;BME280;17365;48.878;8.334;2023-02-08T10:02:29;102006.97;;;2.06;47.30
30598;BME280;17365;48.878;8.334;2023-02-08T10:05:11;102002.66;;;2.18;45.87
30598;BME280;17365;48.878;8.334;2023-02-08T10:07:38;102004.50;;;2.21;44.66
30598;BME280;17365;48.878;8.334;2023-02-08T10:10:11;102006.19;;;2.20;43.75
30598;BME280;17365;48.878;8.334;2023-02-08T10:13:00;102002.84;;;2.34;44.29
30598;BME280;17365;48.878;8.334;2023-02-08T10:15:50;102003.81;;;2.37;43.74
30598;BME280;17365;48.878;8.334;2023-02-08T10:26:24;101987.97;;;2.55;43.45
30598;BME280;17365;48.878;8.334;2023-02-08T10:32:09;101976.63;;;2.78;42.17
30598;BME280;17365;48.878;8.334;2023-02-08T10:34:55;101976.53;;;2.77;43.95
30598;BME280;17365;48.878;8.334;2023-02-08T10:37:30;101970.13;;;2.70;42.56
30598;BME280;17365;48.878;8.334;2023-02-08T10:40:48;101972.34;;;2.92;42.97
30598;BME280;17365;48.878;8.334;2023-02-08T10:42:57;101970.66;;;3.06;42.48
30598;BME280;17365;48.878;8.334;2023-02-08T10:45:35;101966.66;;;2.96;39.99
30598;BME280;17365;48.878;8.334;2023-02-08T10:48:05;101978.72;;;3.12;40.94
30598;BME280;17365;48.878;8.334;2023-02-08T10:50:37;101965.13;;;3.13;42.57
30598;BME280;17365;48.878;8.334;2023-02-08T10:53:03;101962.47;;;3.11;41.48
30598;BME280;17365;48.878;8.334;2023-02-08T10:55:30;101960.69;;;3.10;42.42
30598;BME280;17365;48.878;8.334;2023-02-08T10:57:58;101965.03;;;3.11;41.03
30598;BME280;17365;48.878;8.334;2023-02-08T11:00:30;101950.38;;;3.24;42.35
30598;BME280;17365;48.878;8.334;2023-02-08T11:02:59;101953.78;;;3.37;42.71
30598;BME280;17365;48.878;8.334;2023-02-08T11:05:35;101961.25;;;3.47;41.97
30598;BME280;17365;48.878;8.334;2023-02-08T11:10:31;101948.25;;;3.44;42.27
30598;BME280;17365;48.878;8.334;2023-02-08T11:12:59;101947.91;;;3.53;42.45
30598;BME280;17365;48.878;8.334;2023-02-08T11:15:36;101939.66;;;3.59;41.82
30598;BME280;17365;48.878;8.334;2023-02-08T11:18:03;101924.72;;;3.52;42.37
30598;BME280;17365;48.878;8.334;2023-02-08T11:20:34;101928.81;;;3.63;43.07
30598;BME280;17365;48.878;8.334;2023-02-08T11:23:02;101923.75;;;3.64;42.22
30598;BME280;17365;48.878;8.334;2023-02-08T11:25:34;101923.56;;;3.61;41.63
30598;BME280;17365;48.878;8.334;2023-02-08T11:28:00;101916.41;;;3.70;41.98
30598;BME280;17365;48.878;8.334;2023-02-08T11:30:25;101921.72;;;3.73;42.60
30598;BME280;17365;48.878;8.334;2023-02-08T11:33:27;101911.72;;;3.78;41.90
30598;BME280;17365;48.878;8.334;2023-02-08T11:38:19;101902.63;;;3.98;42.49
30598;BME280;17365;48.878;8.334;2023-02-08T11:40:51;101908.38;;;3.79;42.79
30598;BME280;17365;48.878;8.334;2023-02-08T11:43:22;101903.94;;;3.76;42.20
30598;BME280;17365;48.878;8.334;2023-02-08T11:45:49;101900.03;;;3.98;43.18
30598;BME280;17365;48.878;8.334;2023-02-08T11:48:21;101898.78;;;3.91;43.04
30598;BME280;17365;48.878;8.334;2023-02-08T11:50:59;101886.41;;;3.99;42.08
30598;BME280;17365;48.878;8.334;2023-02-08T11:53:34;101885.94;;;4.06;42.70
30598;BME280;17365;48.878;8.334;2023-02-08T11:56:19;101893.75;;;3.93;43.22
30598;BME280;17365;48.878;8.334;2023-02-08T11:59:03;101892.78;;;3.91;42.83
30598;BME280;17365;48.878;8.334;2023-02-08T12:01:34;101881.97;;;3.96;43.17
30598;BME280;17365;48.878;8.334;2023-02-08T12:04:03;101871.59;;;4.09;43.76
30598;BME280;17365;48.878;8.334;2023-02-08T12:20:59;101882.19;;;4.16;43.21
30598;BME280;17365;48.878;8.334;2023-02-08T12:29:00;101872.00;;;4.17;42.84
30598;BME280;17365;48.878;8.334;2023-02-08T12:35:10;101864.28;;;4.32;43.08
30598;BME280;17365;48.878;8.334;2023-02-08T12:37:38;101863.34;;;4.15;42.12
30598;BME280;17365;48.878;8.334;2023-02-08T12:40:40;101848.97;;;4.50;42.66
30598;BME280;17365;48.878;8.334;2023-02-08T12:48:30;101844.22;;;4.41;42.72
30598;BME280;17365;48.878;8.334;2023-02-08T12:51:20;101845.53;;;4.49;41.43
30598;BME280;17365;48.878;8.334;2023-02-08T12:53:53;101844.66;;;4.49;41.74
30598;BME280;17365;48.878;8.334;2023-02-08T12:56:28;101835.75;;;4.42;41.39
30598;BME280;17365;48.878;8.334;2023-02-08T12:58:57;101837.88;;;4.34;41.92
30598;BME280;17365;48.878;8.334;2023-02-08T13:01:39;101837.50;;;4.43;41.60
30598;BME280;17365;48.878;8.334;2023-02-08T13:06:46;101829.25;;;4.65;40.81
30598;BME280;17365;48.878;8.334;2023-02-08T13:12:47;101832.69;;;4.49;41.40
30598;BME280;17365;48.878;8.334;2023-02-08T13:14:52;101818.38;;;4.38;41.34
30598;BME280;17365;48.878;8.334;2023-02-08T13:17:27;101814.84;;;4.52;41.44
30598;BME280;17365;48.878;8.334;2023-02-08T13:19:57;101817.53;;;4.54;42.07
30598;BME280;17365;48.878;8.334;2023-02-08T13:22:25;101821.78;;;4.53;41.88
30598;BME280;17365;48.878;8.334;2023-02-08T13:24:51;101825.47;;;4.42;41.86
30598;BME280;17365;48.878;8.334;2023-02-08T13:27:20;101821.91;;;4.40;42.31
30598;BME280;17365;48.878;8.334;2023-02-08T13:29:49;101815.19;;;4.42;41.65
30598;BME280;17365;48.878;8.334;2023-02-08T13:32:45;101809.78;;;4.37;42.47
30598;BME280;17365;48.878;8.334;2023-02-08T13:35:51;101799.06;;;4.30;41.95
30598;BME280;17365;48.878;8.334;2023-02-08T13:38:35;101799.34;;;4.34;41.60
30598;BME280;17365;48.878;8.334;2023-02-08T13:41:56;101800.66;;;4.43;42.06
30598;BME280;17365;48.878;8.334;2023-02-08T13:44:31;101802.88;;;4.36;41.93
30598;BME280;17365;48.878;8.334;2023-02-08T13:46:57;101800.00;;;4.47;42.58
30598;BME280;17365;48.878;8.334;2023-02-08T13:50:00;101800.41;;;4.54;41.98
30598;BME280;17365;48.878;8.334;2023-02-08T14:03:27;101795.41;;;4.74;41.31
30598;BME280;17365;48.878;8.334;2023-02-08T14:05:55;101795.69;;;4.78;41.99
30598;BME280;17365;48.878;8.334;2023-02-08T14:08:40;101800.63;;;4.75;41.71
30598;BME280;17365;48.878;8.334;2023-02-08T14:14:05;101800.75;;;4.77;40.99
30598;BME280;17365;48.878;8.334;2023-02-08T14:16:37;101802.03;;;4.68;41.09
30598;BME280;17365;48.878;8.334;2023-02-08T14:19:20;101797.53;;;4.64;40.64
30598;BME280;17365;48.878;8.334;2023-02-08T14:22:02;101799.53;;;4.70;40.97
30598;BME280;17365;48.878;8.334;2023-02-08T14:25:15;101798.88;;;4.74;40.97
30598;BME280;17365;48.878;8.334;2023-02-08T14:27:48;101790.63;;;4.80;41.18
30598;BME280;17365;48.878;8.334;2023-02-08T14:32:42;101789.47;;;4.75;40.50
30598;BME280;17365;48.878;8.334;2023-02-08T14:35:19;101796.72;;;4.65;40.74
30598;BME280;17365;48.878;8.334;2023-02-08T14:37:45;101781.94;;;4.78;41.09
30598;BME280;17365;48.878;8.334;2023-02-08T14:45:42;101794.97;;;4.64;40.80
30598;BME280;17365;48.878;8.334;2023-02-08T14:51:14;101785.63;;;4.83;40.75
30598;BME280;17365;48.878;8.334;2023-02-08T14:58:36;101783.56;;;4.76;40.34